City by the Sea, Texas
Current Conditions -  °F | °C
As of 8:35 AM on Thursday 23 Oct 2014 (Local Time) from KTFP Reporting Station
Clear Clear  
Wind Chill: 66°   Ceiling: Unl
Heat Index: 66°   Visibility: 10mi
Dew Point: 64°   Wind: 9mph
Humidity: 93%   Direction: 360°N
Pressure: 30.08"   Gusts: NA
Location:  27.9399°N, 97.1805°W
Report Text: KTFP 231335Z AUTO 36008KT 10SM CLR 19/18 A3008 RMK AO2 T01910180
Loading
Personal Weather Stations






























Interactive Weather Map
Tropical Storm Tracking
New forecast layout! Learn more

10-Day Weather Forecast

Advertisements
Track Severe Weather on mobile